Okemos, Michigan
Current Conditions -  °F | °C
As of 10:53 AM on Sunday 23 Nov 2014 (Local Time) from KLAN Reporting Station
Overcast Overcast  
Wind Chill: 50°   Ceiling: 7500
Heat Index: 50°   Visibility: 9mi
Dew Point: 45°   Wind: 12mph
Humidity: 83%   Direction: 190°S
Pressure: 29.84"   Gusts: NA
Location:  42.72°N, 84.43°W
Report Text: KLAN 231553Z 19010KT 9SM SCT047 OVC075 10/07 A2984 RMK AO2 RAB00E09 SLP107 P0000 T01000072 $
Loading
Personal Weather Stations






























Interactive Weather Map New forecast layout! Learn more

10-Day Weather Forecast

Advertisements
Track Severe Weather on mobile